createdAt,value
2017-09-09T00:00:15.409Z,17.56
2017-09-09T00:03:10.006Z,17.56
2017-09-09T00:06:04.671Z,17.56
2017-09-09T00:08:59.337Z,17.55
2017-09-09T00:11:54.003Z,17.55
2017-09-09T00:17:43.428Z,17.56
2017-09-09T00:20:38.127Z,17.55
2017-09-09T00:23:32.901Z,17.55
2017-09-09T00:26:27.459Z,17.55
2017-09-09T00:29:22.146Z,17.56
2017-09-09T00:32:16.701Z,17.55
2017-09-09T00:35:11.392Z,17.55
2017-09-09T00:38:28.628Z,17.54
2017-09-09T00:41:16.272Z,17.57
2017-09-09T00:44:10.775Z,17.58
2017-09-09T00:47:05.303Z,17.58
2017-09-09T00:49:59.892Z,17.58
2017-09-09T00:52:54.522Z,17.57
2017-09-09T00:55:49.223Z,17.55
2017-09-09T00:58:43.849Z,17.53
2017-09-09T01:01:38.610Z,17.53
2017-09-09T01:04:33.375Z,17.52
2017-09-09T01:07:28.002Z,17.51
2017-09-09T01:10:22.654Z,17.50
2017-09-09T01:13:17.386Z,17.49
2017-09-09T01:16:12.045Z,17.49
2017-09-09T01:19:06.761Z,17.48
2017-09-09T01:22:01.587Z,17.48
2017-09-09T01:24:56.134Z,17.48
2017-09-09T01:27:51.110Z,17.48
2017-09-09T01:30:45.830Z,17.48
2017-09-09T01:33:40.505Z,17.47
2017-09-09T01:36:35.130Z,17.47
2017-09-09T01:39:29.828Z,17.47
2017-09-09T01:45:19.795Z,17.44
2017-09-09T01:48:14.357Z,17.44
2017-09-09T01:51:08.988Z,17.43
2017-09-09T01:54:03.656Z,17.43
2017-09-09T01:56:58.328Z,17.43
2017-09-09T01:59:53.018Z,17.43
2017-09-09T02:02:47.708Z,17.42
2017-09-09T02:05:42.394Z,17.43
2017-09-09T02:08:37.050Z,17.43
2017-09-09T02:11:31.751Z,17.43
2017-09-09T02:14:26.370Z,17.43
2017-09-09T02:17:21.006Z,17.44
2017-09-09T02:20:15.604Z,17.44
2017-09-09T02:23:10.229Z,17.45
2017-09-09T02:26:04.870Z,17.46
2017-09-09T02:28:59.559Z,17.45
2017-09-09T02:31:54.214Z,17.45
2017-09-09T02:34:48.951Z,17.46
2017-09-09T02:37:43.557Z,17.46
2017-09-09T02:40:38.277Z,17.45
2017-09-09T02:43:33.025Z,17.45
2017-09-09T02:46:27.767Z,17.45
2017-09-09T02:49:22.607Z,17.46
2017-09-09T02:52:17.323Z,17.47
2017-09-09T02:55:12.063Z,17.47
2017-09-09T02:58:06.862Z,17.47
2017-09-09T03:01:01.600Z,17.47
2017-09-09T03:03:56.252Z,17.48
2017-09-09T03:06:50.974Z,17.48
2017-09-09T03:09:45.761Z,17.49
2017-09-09T03:12:40.413Z,17.49
2017-09-09T03:15:35.261Z,17.48
2017-09-09T03:18:29.950Z,17.48
2017-09-09T03:21:24.731Z,17.49
2017-09-09T03:24:19.477Z,17.49
2017-09-09T03:27:14.260Z,17.50
2017-09-09T03:30:08.926Z,17.50
2017-09-09T03:33:03.645Z,17.51
2017-09-09T03:35:58.346Z,17.51
2017-09-09T03:38:53.072Z,17.51
2017-09-09T03:41:47.807Z,17.52
2017-09-09T03:44:42.541Z,17.52
2017-09-09T03:47:37.303Z,17.52
2017-09-09T03:50:31.986Z,17.52
2017-09-09T03:53:26.669Z,17.52
2017-09-09T03:56:21.316Z,17.53
2017-09-09T03:59:16.171Z,17.53
2017-09-09T04:02:10.837Z,17.54
2017-09-09T04:05:05.519Z,17.54
2017-09-09T04:08:00.280Z,17.54
2017-09-09T04:10:55.057Z,17.54
2017-09-09T04:13:49.815Z,17.53
2017-09-09T04:16:44.519Z,17.52
2017-09-09T04:22:33.970Z,17.53
2017-09-09T04:25:28.777Z,17.53
2017-09-09T04:28:23.537Z,17.53
2017-09-09T04:31:18.215Z,17.53
2017-09-09T04:34:12.940Z,17.54
2017-09-09T04:37:07.675Z,17.53
2017-09-09T04:40:02.474Z,17.54
2017-09-09T04:42:57.211Z,17.54
2017-09-09T04:45:51.907Z,17.55
2017-09-09T04:48:46.603Z,17.56
2017-09-09T04:51:41.409Z,17.56
2017-09-09T04:57:30.928Z,17.57
2017-09-09T05:00:25.612Z,17.58
2017-09-09T05:03:20.341Z,17.59
2017-09-09T05:06:15.107Z,17.59
2017-09-09T05:09:09.880Z,17.59
2017-09-09T05:12:04.655Z,17.60
2017-09-09T05:14:59.300Z,17.61
2017-09-09T05:17:53.974Z,17.61
2017-09-09T05:20:48.798Z,17.61
2017-09-09T05:23:43.601Z,17.62
2017-09-09T05:26:38.259Z,17.62
2017-09-09T05:29:33.015Z,17.62
2017-09-09T05:32:27.755Z,17.62
2017-09-09T05:35:22.451Z,17.63
2017-09-09T05:41:12.009Z,17.64
2017-09-09T05:44:07.245Z,17.64
2017-09-09T05:47:02.070Z,17.64
2017-09-09T05:49:56.744Z,17.64
2017-09-09T05:52:51.604Z,17.65
2017-09-09T05:55:46.375Z,17.64
2017-09-09T05:58:41.134Z,17.64
2017-09-09T06:01:35.827Z,17.65
2017-09-09T06:04:30.524Z,17.65
2017-09-09T06:07:25.249Z,17.66
2017-09-09T06:10:19.857Z,17.66
2017-09-09T06:13:14.669Z,17.66
2017-09-09T06:16:09.371Z,17.66
2017-09-09T06:19:04.179Z,17.67
2017-09-09T06:21:58.950Z,17.69
2017-09-09T06:24:53.784Z,17.70
2017-09-09T06:27:48.590Z,17.71
2017-09-09T06:30:43.327Z,17.73
2017-09-09T06:33:38.078Z,17.74
2017-09-09T06:36:32.914Z,17.75
2017-09-09T06:39:27.617Z,17.76
2017-09-09T06:42:22.397Z,17.77
2017-09-09T06:45:17.181Z,17.79
2017-09-09T06:48:12.041Z,17.80
2017-09-09T06:51:06.782Z,17.81
2017-09-09T06:54:01.820Z,17.82
2017-09-09T06:56:56.518Z,17.84
2017-09-09T06:59:51.416Z,17.86
2017-09-09T07:02:46.101Z,17.88
2017-09-09T07:05:40.842Z,17.89
2017-09-09T07:08:35.729Z,17.91
2017-09-09T07:11:30.534Z,17.93
2017-09-09T07:14:25.379Z,17.95
2017-09-09T07:17:20.077Z,17.97
2017-09-09T07:20:14.726Z,17.98
2017-09-09T07:23:09.533Z,18.00
2017-09-09T07:26:04.356Z,18.01
2017-09-09T07:28:59.136Z,18.03
2017-09-09T07:34:48.788Z,18.07
2017-09-09T07:37:43.600Z,18.08
2017-09-09T07:45:20.947Z,18.30
2017-09-09T07:48:04.742Z,18.48
2017-09-09T07:50:58.872Z,18.54
2017-09-09T07:53:53.429Z,18.53
2017-09-09T07:56:59.304Z,18.48
2017-09-09T08:11:05.657Z,18.84
2017-09-09T08:14:11.400Z,18.79
2017-09-09T08:20:47.183Z,18.76
2017-09-09T08:35:22.953Z,19.37
2017-09-09T08:40:10.561Z,19.43
2017-09-09T08:42:54.661Z,19.41
2017-09-09T08:56:44.008Z,19.45
2017-09-09T08:59:27.300Z,19.51
2017-09-09T11:51:05.670Z,20.55
2017-09-09T11:57:57.608Z,20.37
2017-09-09T12:34:46.487Z,20.45
2017-09-09T12:59:31.993Z,20.49
2017-09-09T13:02:49.344Z,20.45
2017-09-09T13:05:35.501Z,20.30
2017-09-09T13:40:42.051Z,20.40
2017-09-09T13:43:36.835Z,20.38
2017-09-09T14:01:07.446Z,20.28
2017-09-09T14:03:50.966Z,20.29
2017-09-09T14:06:56.209Z,20.17
2017-09-09T14:20:52.637Z,20.07
2017-09-09T14:24:10.077Z,20.12
2017-09-09T14:28:49.289Z,19.98
2017-09-09T14:31:33.709Z,19.94
2017-09-09T14:39:16.796Z,19.75
2017-09-09T14:53:51.650Z,20.06
2017-09-09T14:57:09.109Z,20.16
2017-09-09T14:59:55.345Z,20.13
2017-09-09T15:02:49.686Z,20.04
2017-09-09T15:05:44.267Z,19.92
2017-09-09T15:14:18.072Z,19.86
2017-09-09T15:17:02.048Z,19.96
2017-09-09T15:22:00.427Z,19.94
2017-09-09T15:30:12.640Z,20.10
2017-09-09T15:32:56.381Z,20.19
2017-09-09T15:35:50.490Z,20.16
2017-09-09T15:38:45.105Z,20.07
2017-09-09T15:41:39.867Z,19.95
2017-09-09T15:45:19.919Z,19.83
2017-09-09T15:51:52.150Z,19.81
2017-09-09T15:54:36.267Z,19.92
2017-09-09T15:57:30.447Z,19.92
2017-09-09T16:00:25.049Z,19.87
2017-09-09T16:03:19.927Z,19.79
2017-09-09T16:06:14.773Z,19.72
2017-09-09T16:09:09.623Z,19.66
2017-09-09T16:12:04.504Z,19.59
2017-09-09T16:14:59.479Z,19.53
2017-09-09T16:22:48.119Z,19.60
2017-09-09T16:25:31.958Z,19.73
2017-09-09T16:28:26.087Z,19.74
2017-09-09T16:33:02.306Z,19.69
2017-09-09T16:35:47.039Z,19.71
2017-09-09T16:41:36.122Z,19.62
2017-09-09T16:52:59.439Z,19.89
2017-09-09T16:55:43.148Z,20.01
2017-09-09T17:01:31.643Z,19.90
2017-09-09T17:04:26.334Z,19.79
2017-09-09T17:12:21.198Z,19.69
2017-09-09T17:16:57.192Z,19.65
2017-09-09T17:23:57.112Z,19.70
2017-09-09T17:32:30.403Z,19.77
2017-09-09T17:35:14.248Z,19.89
2017-09-09T17:38:08.163Z,19.87
2017-09-09T17:41:02.771Z,19.79
2017-09-09T17:44:43.162Z,19.68
2017-09-09T17:47:51.858Z,19.62
2017-09-09T17:50:39.615Z,19.58
2017-09-09T17:59:47.184Z,19.64
2017-09-09T18:02:30.976Z,19.75
2017-09-09T18:05:25.074Z,19.74
2017-09-09T18:08:19.672Z,19.67
2017-09-09T18:11:14.511Z,19.58
2017-09-09T18:14:43.182Z,19.46
2017-09-09T18:18:03.924Z,19.39
2017-09-09T18:26:07.058Z,19.46
2017-09-09T18:28:50.799Z,19.59
2017-09-09T18:31:44.750Z,19.59
2017-09-09T18:34:39.312Z,19.52
2017-09-09T18:37:33.987Z,19.43
2017-09-09T18:45:22.585Z,19.39
2017-09-09T18:48:06.359Z,19.50
2017-09-09T18:51:00.454Z,19.49
2017-09-09T18:53:55.044Z,19.41
2017-09-09T18:56:49.813Z,19.32
2017-09-09T19:08:13.107Z,19.49
2017-09-09T19:10:56.688Z,19.60
2017-09-09T19:13:50.548Z,19.59
2017-09-09T19:16:45.100Z,19.50
2017-09-09T19:23:32.878Z,19.33
2017-09-09T19:26:38.644Z,19.27
2017-09-09T19:37:39.964Z,19.38
2017-09-09T19:40:29.329Z,19.38
2017-09-09T19:43:23.815Z,19.32
2017-09-09T19:49:41.973Z,19.22
2017-09-09T19:52:48.624Z,19.30
2017-09-09T19:56:21.330Z,19.29
2017-09-09T19:59:07.260Z,19.28
2017-09-09T20:02:01.763Z,19.23
2017-09-09T20:04:56.534Z,19.16
2017-09-09T20:11:26.068Z,19.11
2017-09-09T20:14:10.044Z,19.21
2017-09-09T20:17:04.192Z,19.21
2017-09-09T20:22:25.620Z,19.13
2017-09-09T20:25:09.976Z,19.19
2017-09-09T20:28:04.265Z,19.17
2017-09-09T20:30:58.858Z,19.11
2017-09-09T20:33:53.569Z,19.05
2017-09-09T20:41:03.924Z,18.97
2017-09-09T20:43:53.582Z,18.96
2017-09-09T20:46:48.465Z,18.93
2017-09-09T20:49:43.228Z,18.88
2017-09-09T20:52:38.021Z,18.83
2017-09-09T20:55:32.902Z,18.76
2017-09-09T21:03:10.276Z,18.84
2017-09-09T21:05:54.204Z,18.97
2017-09-09T21:08:48.361Z,19.00
2017-09-09T21:11:42.810Z,18.97
2017-09-09T21:14:48.938Z,18.91
2017-09-09T21:17:50.100Z,18.85
2017-09-09T21:25:33.847Z,18.92
2017-09-09T21:28:17.575Z,19.04
2017-09-09T21:31:11.599Z,19.05
2017-09-09T21:35:36.501Z,18.97
2017-09-09T21:38:21.309Z,18.98
2017-09-09T21:41:15.732Z,18.94
2017-09-09T21:47:11.199Z,18.85
2017-09-09T21:56:36.412Z,19.10
2017-09-09T21:59:30.502Z,19.07
2017-09-09T22:02:24.944Z,19.00
2017-09-09T22:05:19.750Z,18.90
2017-09-09T22:08:14.462Z,18.79
2017-09-09T22:11:20.673Z,18.69
2017-09-09T22:17:56.658Z,18.63
2017-09-09T22:20:40.702Z,18.73
2017-09-09T22:23:34.847Z,18.74
2017-09-09T22:27:37.300Z,18.67
2017-09-09T22:30:22.807Z,18.66
2017-09-09T22:33:17.275Z,18.63
2017-09-09T22:40:20.619Z,18.59
2017-09-09T22:43:04.437Z,18.69
2017-09-09T22:45:58.487Z,18.70
2017-09-09T22:48:53.024Z,18.64
2017-09-09T22:55:56.295Z,18.59
2017-09-09T22:58:40.203Z,18.68
2017-09-09T23:01:34.251Z,18.67
2017-09-09T23:04:28.761Z,18.61
2017-09-09T23:07:23.450Z,18.52
2017-09-09T23:10:18.254Z,18.43
2017-09-09T23:20:11.286Z,18.57
2017-09-09T23:22:54.846Z,18.70
2017-09-09T23:25:48.890Z,18.70
2017-09-09T23:28:43.546Z,18.62
2017-09-09T23:31:38.161Z,18.52
2017-09-09T23:41:08.384Z,18.59
2017-09-09T23:43:52.034Z,18.70
2017-09-09T23:46:45.942Z,18.68
2017-09-09T23:49:40.626Z,18.61
2017-09-09T23:52:35.238Z,18.50
